map of AAN home
AAN - Airport
Location
City:  Al Ain, Abu Dhabi, United Arab Emirates
Name:Al Ain International Airport
ICAO:OMAL
IATA:AAN

Details
Type:Airport (Aerodrome, Airfield)
Use:Public/Civil, International (customs port of entry)
Latitude:2415'42"N (24.261667)
Longitude:5536'33"E (55.609167)
Datum:WGS 1984
Elevation:869 ft (265 m)
Variation:1.84E (WMM2015 magnetic declination)
0.05 annual change
Runways:1
Longest:13123 × 148 ft (4000 × 45 m), paved

Time
Time Zone:UTC+4
Local Time:

Weather
METAR:OMAL 131100Z 12005KT 080V160 9999 FEW046 26/08 Q1016 BECMG 30005KT

Related Locations
Nearby:
Farthest:GMR: 11777 mi / 18954 km
Mangareva [Totegegie], Gambier Islands, PF

Find:

   beyond  
but within

Other Information
Maps:
NOTAMs:
Links:
Sources:

  
flag of United Arab Emirates
flag of Abu Dhabi
  

Sectional Chart

Flight Planning
at skyvector.com

Satellite Image

Google Maps Satellite view

 

Copyright © 2004-2017 Karl L. Swartz. All rights reserved.
The Great Circle Mapper name and logo are trademarks of the Great Circle Mapper.
All other trademarks mentioned herein belong to their respective owners.
Please see credits for attibutions and further copyright information.

  Follow gcmap on Facebook Follow gcmap on Twitter Follow gcmap on Google+ GCmap on LinkedIn

hCard Microformat

Geo Microformat